sensor_id;sensor_type;location;lat;lon;timestamp;P1;durP1;ratioP1;P2;durP2;ratioP2
72037;SDS011;59900;50.788;12.904;2022-07-26T00:01:43;11.33;;;7.77;;
72037;SDS011;59900;50.788;12.904;2022-07-26T00:04:08;12.73;;;7.33;;
72037;SDS011;59900;50.788;12.904;2022-07-26T00:06:34;15.10;;;8.20;;
72037;SDS011;59900;50.788;12.904;2022-07-26T00:08:59;16.00;;;9.00;;
72037;SDS011;59900;50.788;12.904;2022-07-26T00:11:25;13.53;;;8.93;;
72037;SDS011;59900;50.788;12.904;2022-07-26T00:13:51;12.90;;;8.35;;
72037;SDS011;59900;50.788;12.904;2022-07-26T00:16:16;11.50;;;7.87;;
72037;SDS011;59900;50.788;12.904;2022-07-26T00:18:42;13.35;;;8.45;;
72037;SDS011;59900;50.788;12.904;2022-07-26T00:21:08;15.47;;;8.10;;
72037;SDS011;59900;50.788;12.904;2022-07-26T00:23:33;15.65;;;7.95;;
72037;SDS011;59900;50.788;12.904;2022-07-26T00:25:59;11.40;;;7.53;;
72037;SDS011;59900;50.788;12.904;2022-07-26T00:28:24;14.57;;;8.10;;
72037;SDS011;59900;50.788;12.904;2022-07-26T00:30:49;12.40;;;7.17;;
72037;SDS011;59900;50.788;12.904;2022-07-26T00:33:14;13.10;;;7.47;;
72037;SDS011;59900;50.788;12.904;2022-07-26T00:35:40;11.50;;;7.57;;
72037;SDS011;59900;50.788;12.904;2022-07-26T00:38:05;12.40;;;7.27;;
72037;SDS011;59900;50.788;12.904;2022-07-26T00:40:30;11.87;;;7.00;;
72037;SDS011;59900;50.788;12.904;2022-07-26T00:42:56;13.57;;;7.63;;
72037;SDS011;59900;50.788;12.904;2022-07-26T00:45:21;12.37;;;7.57;;
72037;SDS011;59900;50.788;12.904;2022-07-26T00:47:47;12.00;;;7.20;;
72037;SDS011;59900;50.788;12.904;2022-07-26T00:50:13;11.63;;;7.23;;
72037;SDS011;59900;50.788;12.904;2022-07-26T00:52:40;13.23;;;7.43;;
72037;SDS011;59900;50.788;12.904;2022-07-26T00:55:06;13.48;;;7.40;;
72037;SDS011;59900;50.788;12.904;2022-07-26T00:57:32;12.30;;;7.57;;
72037;SDS011;59900;50.788;12.904;2022-07-26T01:00:00;12.30;;;7.18;;
72037;SDS011;59900;50.788;12.904;2022-07-26T01:02:26;10.57;;;7.10;;
72037;SDS011;59900;50.788;12.904;2022-07-26T01:04:51;11.95;;;7.85;;
72037;SDS011;59900;50.788;12.904;2022-07-26T01:07:17;12.53;;;7.63;;
72037;SDS011;59900;50.788;12.904;2022-07-26T01:09:43;12.80;;;7.23;;
72037;SDS011;59900;50.788;12.904;2022-07-26T01:12:08;12.48;;;7.35;;
72037;SDS011;59900;50.788;12.904;2022-07-26T01:14:34;13.90;;;8.17;;
72037;SDS011;59900;50.788;12.904;2022-07-26T01:16:59;13.10;;;7.80;;
72037;SDS011;59900;50.788;12.904;2022-07-26T01:19:25;13.67;;;7.90;;
72037;SDS011;59900;50.788;12.904;2022-07-26T01:21:50;13.17;;;8.30;;
72037;SDS011;59900;50.788;12.904;2022-07-26T01:24:16;15.87;;;7.53;;
72037;SDS011;59900;50.788;12.904;2022-07-26T01:26:42;14.52;;;8.40;;
72037;SDS011;59900;50.788;12.904;2022-07-26T01:29:07;14.20;;;8.30;;
72037;SDS011;59900;50.788;12.904;2022-07-26T01:31:33;14.48;;;8.00;;
72037;SDS011;59900;50.788;12.904;2022-07-26T01:33:58;13.80;;;7.83;;
72037;SDS011;59900;50.788;12.904;2022-07-26T01:36:24;10.97;;;7.40;;
72037;SDS011;59900;50.788;12.904;2022-07-26T01:38:49;12.50;;;7.57;;
72037;SDS011;59900;50.788;12.904;2022-07-26T01:41:14;13.80;;;8.00;;
72037;SDS011;59900;50.788;12.904;2022-07-26T01:43:40;12.02;;;7.80;;
72037;SDS011;59900;50.788;12.904;2022-07-26T01:46:06;11.63;;;7.70;;
72037;SDS011;59900;50.788;12.904;2022-07-26T01:48:32;13.30;;;8.13;;
72037;SDS011;59900;50.788;12.904;2022-07-26T01:50:57;11.63;;;8.27;;
72037;SDS011;59900;50.788;12.904;2022-07-26T01:53:23;18.97;;;9.07;;
72037;SDS011;59900;50.788;12.904;2022-07-26T01:55:48;16.00;;;8.03;;
72037;SDS011;59900;50.788;12.904;2022-07-26T01:58:13;14.60;;;8.23;;
72037;SDS011;59900;50.788;12.904;2022-07-26T02:00:39;13.33;;;7.63;;
72037;SDS011;59900;50.788;12.904;2022-07-26T02:03:04;13.83;;;8.13;;
72037;SDS011;59900;50.788;12.904;2022-07-26T02:05:29;13.07;;;7.70;;
72037;SDS011;59900;50.788;12.904;2022-07-26T02:07:55;12.40;;;7.60;;
72037;SDS011;59900;50.788;12.904;2022-07-26T02:10:20;11.23;;;7.40;;
72037;SDS011;59900;50.788;12.904;2022-07-26T02:12:45;12.63;;;8.17;;
72037;SDS011;59900;50.788;12.904;2022-07-26T02:15:11;12.13;;;7.40;;
72037;SDS011;59900;50.788;12.904;2022-07-26T02:17:38;11.88;;;7.68;;
72037;SDS011;59900;50.788;12.904;2022-07-26T02:20:03;13.53;;;7.20;;
72037;SDS011;59900;50.788;12.904;2022-07-26T02:22:30;12.52;;;7.88;;
72037;SDS011;59900;50.788;12.904;2022-07-26T02:24:55;14.33;;;7.97;;
72037;SDS011;59900;50.788;12.904;2022-07-26T02:27:21;12.73;;;8.57;;
72037;SDS011;59900;50.788;12.904;2022-07-26T02:29:46;15.17;;;8.67;;
72037;SDS011;59900;50.788;12.904;2022-07-26T02:32:11;11.90;;;8.43;;
72037;SDS011;59900;50.788;12.904;2022-07-26T02:34:37;15.03;;;9.00;;
72037;SDS011;59900;50.788;12.904;2022-07-26T02:37:02;13.97;;;8.43;;
72037;SDS011;59900;50.788;12.904;2022-07-26T02:39:28;13.80;;;8.48;;
72037;SDS011;59900;50.788;12.904;2022-07-26T02:41:54;15.30;;;8.87;;
72037;SDS011;59900;50.788;12.904;2022-07-26T02:44:21;12.32;;;8.35;;
72037;SDS011;59900;50.788;12.904;2022-07-26T02:46:46;13.47;;;8.67;;
72037;SDS011;59900;50.788;12.904;2022-07-26T02:49:11;14.37;;;8.53;;
72037;SDS011;59900;50.788;12.904;2022-07-26T02:51:37;14.27;;;9.27;;
72037;SDS011;59900;50.788;12.904;2022-07-26T02:54:02;13.37;;;8.30;;
72037;SDS011;59900;50.788;12.904;2022-07-26T02:56:27;15.17;;;8.50;;
72037;SDS011;59900;50.788;12.904;2022-07-26T02:58:53;11.73;;;8.00;;
72037;SDS011;59900;50.788;12.904;2022-07-26T03:01:18;14.97;;;7.93;;
72037;SDS011;59900;50.788;12.904;2022-07-26T03:03:43;12.87;;;8.63;;
72037;SDS011;59900;50.788;12.904;2022-07-26T03:06:09;12.67;;;8.30;;
72037;SDS011;59900;50.788;12.904;2022-07-26T03:08:34;13.55;;;8.43;;
72037;SDS011;59900;50.788;12.904;2022-07-26T03:10:59;15.40;;;8.53;;
72037;SDS011;59900;50.788;12.904;2022-07-26T03:13:25;13.67;;;7.93;;
72037;SDS011;59900;50.788;12.904;2022-07-26T03:15:50;14.00;;;8.80;;
72037;SDS011;59900;50.788;12.904;2022-07-26T03:18:15;12.30;;;8.23;;
72037;SDS011;59900;50.788;12.904;2022-07-26T03:20:41;12.70;;;7.90;;
72037;SDS011;59900;50.788;12.904;2022-07-26T03:23:06;11.57;;;7.78;;
72037;SDS011;59900;50.788;12.904;2022-07-26T03:25:31;13.00;;;7.60;;
72037;SDS011;59900;50.788;12.904;2022-07-26T03:27:57;14.67;;;7.97;;
72037;SDS011;59900;50.788;12.904;2022-07-26T03:30:22;12.77;;;8.03;;
72037;SDS011;59900;50.788;12.904;2022-07-26T03:32:48;17.88;;;7.97;;
72037;SDS011;59900;50.788;12.904;2022-07-26T03:35:14;14.40;;;8.27;;
72037;SDS011;59900;50.788;12.904;2022-07-26T03:37:39;15.40;;;8.47;;
72037;SDS011;59900;50.788;12.904;2022-07-26T03:40:04;12.30;;;7.93;;
72037;SDS011;59900;50.788;12.904;2022-07-26T03:42:32;14.25;;;7.85;;
72037;SDS011;59900;50.788;12.904;2022-07-26T03:44:57;13.07;;;9.10;;
72037;SDS011;59900;50.788;12.904;2022-07-26T03:47:22;11.80;;;8.23;;
72037;SDS011;59900;50.788;12.904;2022-07-26T03:49:47;16.20;;;8.47;;
72037;SDS011;59900;50.788;12.904;2022-07-26T03:52:13;12.77;;;8.13;;
72037;SDS011;59900;50.788;12.904;2022-07-26T03:54:38;15.87;;;9.17;;
72037;SDS011;59900;50.788;12.904;2022-07-26T03:57:03;14.03;;;8.43;;
72037;SDS011;59900;50.788;12.904;2022-07-26T03:59:28;13.67;;;9.00;;
72037;SDS011;59900;50.788;12.904;2022-07-26T04:01:54;14.77;;;9.57;;
72037;SDS011;59900;50.788;12.904;2022-07-26T04:04:19;16.53;;;9.60;;
72037;SDS011;59900;50.788;12.904;2022-07-26T04:06:45;14.47;;;9.00;;
72037;SDS011;59900;50.788;12.904;2022-07-26T04:09:11;15.75;;;9.25;;
72037;SDS011;59900;50.788;12.904;2022-07-26T04:11:37;13.98;;;8.98;;
72037;SDS011;59900;50.788;12.904;2022-07-26T04:14:04;16.00;;;9.43;;
72037;SDS011;59900;50.788;12.904;2022-07-26T04:16:29;14.73;;;9.00;;
72037;SDS011;59900;50.788;12.904;2022-07-26T04:18:54;15.43;;;9.37;;
72037;SDS011;59900;50.788;12.904;2022-07-26T04:21:20;14.13;;;8.93;;
72037;SDS011;59900;50.788;12.904;2022-07-26T04:23:46;16.27;;;8.63;;
72037;SDS011;59900;50.788;12.904;2022-07-26T04:26:11;16.37;;;8.67;;
72037;SDS011;59900;50.788;12.904;2022-07-26T04:28:39;12.90;;;7.68;;
72037;SDS011;59900;50.788;12.904;2022-07-26T04:31:05;13.90;;;7.88;;
72037;SDS011;59900;50.788;12.904;2022-07-26T04:33:31;13.50;;;8.10;;
72037;SDS011;59900;50.788;12.904;2022-07-26T04:35:57;14.40;;;8.00;;
72037;SDS011;59900;50.788;12.904;2022-07-26T04:38:22;15.57;;;7.67;;
72037;SDS011;59900;50.788;12.904;2022-07-26T04:40:48;13.70;;;6.93;;
72037;SDS011;59900;50.788;12.904;2022-07-26T04:43:14;15.98;;;7.88;;
72037;SDS011;59900;50.788;12.904;2022-07-26T04:45:39;15.10;;;8.13;;
72037;SDS011;59900;50.788;12.904;2022-07-26T04:48:04;13.33;;;7.87;;
72037;SDS011;59900;50.788;12.904;2022-07-26T04:50:30;14.23;;;7.68;;
72037;SDS011;59900;50.788;12.904;2022-07-26T04:52:55;12.00;;;7.93;;
72037;SDS011;59900;50.788;12.904;2022-07-26T04:55:21;11.63;;;7.90;;
72037;SDS011;59900;50.788;12.904;2022-07-26T04:57:47;13.02;;;7.20;;
72037;SDS011;59900;50.788;12.904;2022-07-26T05:00:14;11.15;;;6.22;;
72037;SDS011;59900;50.788;12.904;2022-07-26T05:02:45;12.80;;;6.43;;
72037;SDS011;59900;50.788;12.904;2022-07-26T05:05:10;10.33;;;6.03;;
72037;SDS011;59900;50.788;12.904;2022-07-26T05:07:39;9.93;;;6.53;;
72037;SDS011;59900;50.788;12.904;2022-07-26T05:10:09;11.57;;;5.60;;
72037;SDS011;59900;50.788;12.904;2022-07-26T05:12:35;10.43;;;5.75;;
72037;SDS011;59900;50.788;12.904;2022-07-26T05:15:01;12.10;;;6.27;;
72037;SDS011;59900;50.788;12.904;2022-07-26T05:17:27;9.83;;;6.17;;
72037;SDS011;59900;50.788;12.904;2022-07-26T05:19:52;10.03;;;5.10;;
72037;SDS011;59900;50.788;12.904;2022-07-26T05:22:18;14.33;;;5.23;;
72037;SDS011;59900;50.788;12.904;2022-07-26T05:24:43;9.13;;;4.60;;
72037;SDS011;59900;50.788;12.904;2022-07-26T05:27:08;8.20;;;4.47;;
72037;SDS011;59900;50.788;12.904;2022-07-26T05:29:34;10.23;;;4.30;;
72037;SDS011;59900;50.788;12.904;2022-07-26T05:31:59;11.70;;;4.47;;
72037;SDS011;59900;50.788;12.904;2022-07-26T05:34:24;10.23;;;4.27;;
72037;SDS011;59900;50.788;12.904;2022-07-26T05:36:49;8.73;;;4.03;;
72037;SDS011;59900;50.788;12.904;2022-07-26T05:39:15;6.97;;;3.10;;
72037;SDS011;59900;50.788;12.904;2022-07-26T05:41:40;8.50;;;3.53;;
72037;SDS011;59900;50.788;12.904;2022-07-26T05:44:05;8.30;;;4.13;;
72037;SDS011;59900;50.788;12.904;2022-07-26T05:46:31;7.90;;;3.67;;
72037;SDS011;59900;50.788;12.904;2022-07-26T05:48:56;8.87;;;3.97;;
72037;SDS011;59900;50.788;12.904;2022-07-26T05:51:21;11.80;;;3.93;;
72037;SDS011;59900;50.788;12.904;2022-07-26T05:53:46;12.10;;;3.90;;
72037;SDS011;59900;50.788;12.904;2022-07-26T05:56:12;8.80;;;3.80;;
72037;SDS011;59900;50.788;12.904;2022-07-26T05:58:37;7.90;;;3.50;;
72037;SDS011;59900;50.788;12.904;2022-07-26T06:01:02;7.83;;;3.60;;
72037;SDS011;59900;50.788;12.904;2022-07-26T06:03:27;9.23;;;3.40;;
72037;SDS011;59900;50.788;12.904;2022-07-26T06:05:55;8.05;;;3.25;;
72037;SDS011;59900;50.788;12.904;2022-07-26T06:08:21;7.17;;;3.70;;
72037;SDS011;59900;50.788;12.904;2022-07-26T06:10:48;8.80;;;3.53;;
72037;SDS011;59900;50.788;12.904;2022-07-26T06:13:14;7.45;;;3.40;;
72037;SDS011;59900;50.788;12.904;2022-07-26T06:15:39;9.30;;;3.40;;
72037;SDS011;59900;50.788;12.904;2022-07-26T06:18:06;8.25;;;3.25;;
72037;SDS011;59900;50.788;12.904;2022-07-26T06:20:31;8.27;;;3.83;;
72037;SDS011;59900;50.788;12.904;2022-07-26T06:22:57;7.28;;;3.63;;
72037;SDS011;59900;50.788;12.904;2022-07-26T06:25:23;9.73;;;4.10;;
72037;SDS011;59900;50.788;12.904;2022-07-26T06:27:49;5.47;;;2.73;;
72037;SDS011;59900;50.788;12.904;2022-07-26T06:30:14;7.50;;;2.97;;
72037;SDS011;59900;50.788;12.904;2022-07-26T06:32:40;5.87;;;2.93;;
72037;SDS011;59900;50.788;12.904;2022-07-26T06:35:08;6.00;;;3.15;;
72037;SDS011;59900;50.788;12.904;2022-07-26T06:37:37;9.53;;;3.27;;
72037;SDS011;59900;50.788;12.904;2022-07-26T06:40:03;7.70;;;3.00;;
72037;SDS011;59900;50.788;12.904;2022-07-26T06:42:29;8.13;;;2.80;;
72037;SDS011;59900;50.788;12.904;2022-07-26T06:44:56;5.72;;;2.78;;
72037;SDS011;59900;50.788;12.904;2022-07-26T06:47:22;8.60;;;3.17;;
72037;SDS011;59900;50.788;12.904;2022-07-26T06:49:47;6.17;;;2.80;;
72037;SDS011;59900;50.788;12.904;2022-07-26T06:52:12;8.40;;;2.87;;
72037;SDS011;59900;50.788;12.904;2022-07-26T06:54:37;9.10;;;2.53;;
72037;SDS011;59900;50.788;12.904;2022-07-26T06:57:03;7.53;;;2.60;;
72037;SDS011;59900;50.788;12.904;2022-07-26T06:59:28;5.57;;;2.37;;
72037;SDS011;59900;50.788;12.904;2022-07-26T07:01:53;4.93;;;2.03;;
72037;SDS011;59900;50.788;12.904;2022-07-26T07:04:18;5.77;;;2.30;;
72037;SDS011;59900;50.788;12.904;2022-07-26T07:06:44;4.80;;;2.13;;
72037;SDS011;59900;50.788;12.904;2022-07-26T07:09:09;7.20;;;2.50;;
72037;SDS011;59900;50.788;12.904;2022-07-26T07:11:34;6.47;;;2.60;;
72037;SDS011;59900;50.788;12.904;2022-07-26T07:13:59;6.77;;;2.70;;
72037;SDS011;59900;50.788;12.904;2022-07-26T07:16:27;5.70;;;2.30;;
72037;SDS011;59900;50.788;12.904;2022-07-26T07:18:52;6.87;;;2.73;;
72037;SDS011;59900;50.788;12.904;2022-07-26T07:21:17;5.53;;;2.40;;
72037;SDS011;59900;50.788;12.904;2022-07-26T07:23:43;5.83;;;2.20;;
72037;SDS011;59900;50.788;12.904;2022-07-26T07:26:08;7.13;;;2.63;;
72037;SDS011;59900;50.788;12.904;2022-07-26T07:28:33;5.37;;;2.10;;
72037;SDS011;59900;50.788;12.904;2022-07-26T07:31:02;7.20;;;2.30;;
72037;SDS011;59900;50.788;12.904;2022-07-26T07:33:27;6.00;;;2.10;;
72037;SDS011;59900;50.788;12.904;2022-07-26T07:35:52;6.80;;;2.30;;
72037;SDS011;59900;50.788;12.904;2022-07-26T07:38:18;5.60;;;2.30;;
72037;SDS011;59900;50.788;12.904;2022-07-26T07:40:43;4.53;;;2.00;;
72037;SDS011;59900;50.788;12.904;2022-07-26T07:43:08;4.60;;;2.00;;
72037;SDS011;59900;50.788;12.904;2022-07-26T07:45:33;6.77;;;2.10;;
72037;SDS011;59900;50.788;12.904;2022-07-26T07:47:59;5.07;;;2.33;;
72037;SDS011;59900;50.788;12.904;2022-07-26T07:50:24;6.50;;;2.23;;
72037;SDS011;59900;50.788;12.904;2022-07-26T07:52:49;4.97;;;1.83;;
72037;SDS011;59900;50.788;12.904;2022-07-26T07:55:14;5.40;;;1.90;;
72037;SDS011;59900;50.788;12.904;2022-07-26T07:57:40;14.47;;;2.00;;
72037;SDS011;59900;50.788;12.904;2022-07-26T08:00:05;7.13;;;2.43;;
72037;SDS011;59900;50.788;12.904;2022-07-26T08:02:31;8.13;;;2.40;;
72037;SDS011;59900;50.788;12.904;2022-07-26T08:04:57;5.23;;;2.27;;
72037;SDS011;59900;50.788;12.904;2022-07-26T08:07:22;5.83;;;1.93;;
72037;SDS011;59900;50.788;12.904;2022-07-26T08:09:47;6.57;;;2.27;;
72037;SDS011;59900;50.788;12.904;2022-07-26T08:12:12;5.57;;;1.80;;
72037;SDS011;59900;50.788;12.904;2022-07-26T08:14:38;6.43;;;2.20;;
72037;SDS011;59900;50.788;12.904;2022-07-26T08:17:03;7.23;;;2.37;;
72037;SDS011;59900;50.788;12.904;2022-07-26T08:19:28;6.07;;;1.90;;
72037;SDS011;59900;50.788;12.904;2022-07-26T08:21:53;6.70;;;2.13;;
72037;SDS011;59900;50.788;12.904;2022-07-26T08:24:19;4.33;;;1.97;;
72037;SDS011;59900;50.788;12.904;2022-07-26T08:26:44;7.27;;;2.00;;
72037;SDS011;59900;50.788;12.904;2022-07-26T08:29:09;4.27;;;2.10;;
72037;SDS011;59900;50.788;12.904;2022-07-26T08:31:35;5.73;;;2.00;;
72037;SDS011;59900;50.788;12.904;2022-07-26T08:34:00;5.63;;;2.10;;
72037;SDS011;59900;50.788;12.904;2022-07-26T08:36:25;4.67;;;2.50;;
72037;SDS011;59900;50.788;12.904;2022-07-26T08:38:51;5.67;;;2.40;;
72037;SDS011;59900;50.788;12.904;2022-07-26T08:41:16;4.90;;;2.10;;
72037;SDS011;59900;50.788;12.904;2022-07-26T08:43:42;8.30;;;1.80;;
72037;SDS011;59900;50.788;12.904;2022-07-26T08:46:07;6.37;;;1.80;;
72037;SDS011;59900;50.788;12.904;2022-07-26T08:48:32;5.03;;;2.03;;
72037;SDS011;59900;50.788;12.904;2022-07-26T08:50:58;5.03;;;1.93;;
72037;SDS011;59900;50.788;12.904;2022-07-26T08:53:30;5.30;;;2.10;;
72037;SDS011;59900;50.788;12.904;2022-07-26T08:55:56;3.95;;;2.00;;
72037;SDS011;59900;50.788;12.904;2022-07-26T08:58:21;6.20;;;2.27;;
72037;SDS011;59900;50.788;12.904;2022-07-26T09:00:46;6.27;;;2.30;;
72037;SDS011;59900;50.788;12.904;2022-07-26T09:03:24;6.27;;;2.37;;
72037;SDS011;59900;50.788;12.904;2022-07-26T09:05:50;6.60;;;1.80;;
72037;SDS011;59900;50.788;12.904;2022-07-26T09:08:27;4.47;;;2.10;;
72037;SDS011;59900;50.788;12.904;2022-07-26T09:10:54;7.65;;;2.00;;
72037;SDS011;59900;50.788;12.904;2022-07-26T09:13:19;5.75;;;2.20;;
72037;SDS011;59900;50.788;12.904;2022-07-26T09:15:47;6.43;;;2.30;;
72037;SDS011;59900;50.788;12.904;2022-07-26T09:18:25;8.10;;;2.17;;
72037;SDS011;59900;50.788;12.904;2022-07-26T09:20:52;5.35;;;2.08;;
72037;SDS011;59900;50.788;12.904;2022-07-26T09:23:17;5.57;;;2.07;;
72037;SDS011;59900;50.788;12.904;2022-07-26T09:25:42;6.90;;;2.03;;
72037;SDS011;59900;50.788;12.904;2022-07-26T09:28:22;4.35;;;1.95;;
72037;SDS011;59900;50.788;12.904;2022-07-26T09:30:57;5.60;;;2.30;;
72037;SDS011;59900;50.788;12.904;2022-07-26T09:33:23;4.15;;;1.90;;
72037;SDS011;59900;50.788;12.904;2022-07-26T09:36:05;6.50;;;2.10;;
72037;SDS011;59900;50.788;12.904;2022-07-26T09:38:37;7.40;;;2.10;;
72037;SDS011;59900;50.788;12.904;2022-07-26T09:41:17;4.05;;;1.90;;
72037;SDS011;59900;50.788;12.904;2022-07-26T09:43:43;4.35;;;1.60;;
72037;SDS011;59900;50.788;12.904;2022-07-26T09:46:09;6.20;;;1.77;;
72037;SDS011;59900;50.788;12.904;2022-07-26T09:48:34;3.75;;;2.00;;
72037;SDS011;59900;50.788;12.904;2022-07-26T09:51:03;3.50;;;1.63;;
72037;SDS011;59900;50.788;12.904;2022-07-26T09:53:37;4.90;;;1.80;;
72037;SDS011;59900;50.788;12.904;2022-07-26T09:56:09;2.80;;;1.50;;
72037;SDS011;59900;50.788;12.904;2022-07-26T09:58:35;5.77;;;2.03;;
72037;SDS011;59900;50.788;12.904;2022-07-26T10:01:01;4.40;;;1.63;;
72037;SDS011;59900;50.788;12.904;2022-07-26T10:03:28;4.47;;;1.60;;
72037;SDS011;59900;50.788;12.904;2022-07-26T10:05:55;3.10;;;1.50;;
72037;SDS011;59900;50.788;12.904;2022-07-26T10:08:22;4.18;;;1.45;;
72037;SDS011;59900;50.788;12.904;2022-07-26T10:11:01;3.67;;;1.30;;
72037;SDS011;59900;50.788;12.904;2022-07-26T10:13:30;3.70;;;1.50;;
72037;SDS011;59900;50.788;12.904;2022-07-26T10:15:56;3.20;;;1.30;;
72037;SDS011;59900;50.788;12.904;2022-07-26T10:23:44;3.33;;;1.50;;
72037;SDS011;59900;50.788;12.904;2022-07-26T10:26:11;4.05;;;1.17;;
72037;SDS011;59900;50.788;12.904;2022-07-26T10:32:11;3.22;;;1.70;;
72037;SDS011;59900;50.788;12.904;2022-07-26T10:34:38;4.18;;;1.90;;
72037;SDS011;59900;50.788;12.904;2022-07-26T10:37:05;5.32;;;1.75;;
72037;SDS011;59900;50.788;12.904;2022-07-26T10:39:34;2.95;;;1.40;;
72037;SDS011;59900;50.788;12.904;2022-07-26T10:42:01;5.00;;;1.67;;
72037;SDS011;59900;50.788;12.904;2022-07-26T10:44:31;6.38;;;1.42;;
72037;SDS011;59900;50.788;12.904;2022-07-26T10:47:08;3.63;;;1.40;;
72037;SDS011;59900;50.788;12.904;2022-07-26T10:49:43;4.75;;;1.67;;
72037;SDS011;59900;50.788;12.904;2022-07-26T10:52:20;5.53;;;2.10;;
72037;SDS011;59900;50.788;12.904;2022-07-26T10:57:23;3.38;;;1.48;;
72037;SDS011;59900;50.788;12.904;2022-07-26T10:59:55;2.47;;;1.30;;
72037;SDS011;59900;50.788;12.904;2022-07-26T11:02:25;4.03;;;1.67;;
72037;SDS011;59900;50.788;12.904;2022-07-26T11:05:00;3.88;;;1.80;;
72037;SDS011;59900;50.788;12.904;2022-07-26T11:07:29;3.90;;;1.70;;
72037;SDS011;59900;50.788;12.904;2022-07-26T11:09:55;3.35;;;1.58;;
72037;SDS011;59900;50.788;12.904;2022-07-26T11:12:21;3.92;;;1.88;;
72037;SDS011;59900;50.788;12.904;2022-07-26T11:14:47;4.28;;;1.80;;
72037;SDS011;59900;50.788;12.904;2022-07-26T11:17:25;3.67;;;1.50;;
72037;SDS011;59900;50.788;12.904;2022-07-26T11:19:53;5.15;;;1.70;;
72037;SDS011;59900;50.788;12.904;2022-07-26T11:22:19;3.33;;;1.43;;
72037;SDS011;59900;50.788;12.904;2022-07-26T11:24:44;3.20;;;1.77;;
72037;SDS011;59900;50.788;12.904;2022-07-26T11:27:09;6.90;;;1.73;;
72037;SDS011;59900;50.788;12.904;2022-07-26T11:29:35;2.67;;;1.70;;
72037;SDS011;59900;50.788;12.904;2022-07-26T11:32:03;3.70;;;1.52;;
72037;SDS011;59900;50.788;12.904;2022-07-26T11:34:30;3.40;;;1.52;;
72037;SDS011;59900;50.788;12.904;2022-07-26T11:36:58;5.30;;;2.03;;
72037;SDS011;59900;50.788;12.904;2022-07-26T11:39:26;5.90;;;1.83;;
72037;SDS011;59900;50.788;12.904;2022-07-26T11:42:01;5.80;;;1.55;;
72037;SDS011;59900;50.788;12.904;2022-07-26T11:44:37;5.03;;;1.60;;
72037;SDS011;59900;50.788;12.904;2022-07-26T11:47:11;3.78;;;2.10;;
72037;SDS011;59900;50.788;12.904;2022-07-26T11:49:37;5.68;;;1.67;;
72037;SDS011;59900;50.788;12.904;2022-07-26T11:52:02;4.87;;;1.87;;
72037;SDS011;59900;50.788;12.904;2022-07-26T11:54:29;4.10;;;1.70;;
72037;SDS011;59900;50.788;12.904;2022-07-26T11:56:57;3.75;;;1.50;;
72037;SDS011;59900;50.788;12.904;2022-07-26T11:59:24;4.00;;;2.10;;
72037;SDS011;59900;50.788;12.904;2022-07-26T12:01:51;3.92;;;1.48;;
72037;SDS011;59900;50.788;12.904;2022-07-26T12:04:27;4.35;;;2.00;;
72037;SDS011;59900;50.788;12.904;2022-07-26T12:06:55;2.37;;;1.33;;
72037;SDS011;59900;50.788;12.904;2022-07-26T12:09:31;3.10;;;1.65;;
72037;SDS011;59900;50.788;12.904;2022-07-26T12:11:59;5.15;;;1.70;;
72037;SDS011;59900;50.788;12.904;2022-07-26T12:14:26;9.48;;;2.00;;
72037;SDS011;59900;50.788;12.904;2022-07-26T12:16:53;4.82;;;1.40;;
72037;SDS011;59900;50.788;12.904;2022-07-26T12:21:45;4.83;;;1.60;;
72037;SDS011;59900;50.788;12.904;2022-07-26T12:29:50;2.60;;;1.27;;
72037;SDS011;59900;50.788;12.904;2022-07-26T12:32:17;2.47;;;1.10;;
72037;SDS011;59900;50.788;12.904;2022-07-26T12:34:53;3.03;;;1.50;;
72037;SDS011;59900;50.788;12.904;2022-07-26T12:37:20;2.78;;;1.30;;
72037;SDS011;59900;50.788;12.904;2022-07-26T12:42:42;3.85;;;1.77;;
72037;SDS011;59900;50.788;12.904;2022-07-26T12:45:18;4.78;;;2.40;;
72037;SDS011;59900;50.788;12.904;2022-07-26T12:47:48;4.30;;;1.70;;
72037;SDS011;59900;50.788;12.904;2022-07-26T12:50:16;3.28;;;1.55;;
72037;SDS011;59900;50.788;12.904;2022-07-26T12:52:44;2.43;;;1.40;;
72037;SDS011;59900;50.788;12.904;2022-07-26T12:55:11;2.97;;;1.48;;
72037;SDS011;59900;50.788;12.904;2022-07-26T12:57:39;6.15;;;1.40;;
72037;SDS011;59900;50.788;12.904;2022-07-26T13:00:06;6.38;;;1.75;;
72037;SDS011;59900;50.788;12.904;2022-07-26T13:02:33;3.42;;;1.38;;
72037;SDS011;59900;50.788;12.904;2022-07-26T13:04:59;7.13;;;1.47;;
72037;SDS011;59900;50.788;12.904;2022-07-26T13:07:24;5.67;;;1.53;;
72037;SDS011;59900;50.788;12.904;2022-07-26T13:09:50;3.20;;;1.60;;
72037;SDS011;59900;50.788;12.904;2022-07-26T13:12:15;2.70;;;1.40;;
72037;SDS011;59900;50.788;12.904;2022-07-26T13:14:40;3.70;;;1.60;;
72037;SDS011;59900;50.788;12.904;2022-07-26T13:17:06;4.93;;;1.80;;
72037;SDS011;59900;50.788;12.904;2022-07-26T13:19:33;5.57;;;1.90;;
72037;SDS011;59900;50.788;12.904;2022-07-26T13:21:59;3.38;;;1.35;;
72037;SDS011;59900;50.788;12.904;2022-07-26T13:24:26;4.28;;;1.30;;
72037;SDS011;59900;50.788;12.904;2022-07-26T13:26:53;4.15;;;1.38;;
72037;SDS011;59900;50.788;12.904;2022-07-26T13:29:18;3.87;;;1.60;;
72037;SDS011;59900;50.788;12.904;2022-07-26T13:31:44;6.07;;;2.47;;
72037;SDS011;59900;50.788;12.904;2022-07-26T13:34:09;6.90;;;3.67;;
72037;SDS011;59900;50.788;12.904;2022-07-26T13:36:35;3.83;;;1.80;;
72037;SDS011;59900;50.788;12.904;2022-07-26T13:39:00;2.70;;;1.57;;
72037;SDS011;59900;50.788;12.904;2022-07-26T13:41:26;4.93;;;1.50;;
72037;SDS011;59900;50.788;12.904;2022-07-26T13:43:52;3.55;;;1.60;;
72037;SDS011;59900;50.788;12.904;2022-07-26T13:46:18;3.10;;;1.47;;
72037;SDS011;59900;50.788;12.904;2022-07-26T13:48:44;3.17;;;1.45;;
72037;SDS011;59900;50.788;12.904;2022-07-26T13:51:09;4.50;;;1.70;;
72037;SDS011;59900;50.788;12.904;2022-07-26T13:53:35;4.47;;;1.77;;
72037;SDS011;59900;50.788;12.904;2022-07-26T13:56:00;3.77;;;2.00;;
72037;SDS011;59900;50.788;12.904;2022-07-26T13:58:26;5.82;;;1.70;;
72037;SDS011;59900;50.788;12.904;2022-07-26T14:00:52;3.40;;;1.50;;
72037;SDS011;59900;50.788;12.904;2022-07-26T14:03:17;4.53;;;1.60;;
72037;SDS011;59900;50.788;12.904;2022-07-26T14:05:42;3.87;;;1.77;;
72037;SDS011;59900;50.788;12.904;2022-07-26T14:08:08;4.47;;;2.00;;
72037;SDS011;59900;50.788;12.904;2022-07-26T14:10:33;5.20;;;2.00;;
72037;SDS011;59900;50.788;12.904;2022-07-26T14:13:03;4.68;;;1.95;;
72037;SDS011;59900;50.788;12.904;2022-07-26T14:15:29;3.63;;;1.90;;
72037;SDS011;59900;50.788;12.904;2022-07-26T14:17:54;4.77;;;2.20;;
72037;SDS011;59900;50.788;12.904;2022-07-26T14:20:19;7.83;;;2.93;;
72037;SDS011;59900;50.788;12.904;2022-07-26T14:22:45;8.68;;;4.15;;
72037;SDS011;59900;50.788;12.904;2022-07-26T14:25:10;4.87;;;2.10;;
72037;SDS011;59900;50.788;12.904;2022-07-26T14:27:36;3.90;;;1.93;;
72037;SDS011;59900;50.788;12.904;2022-07-26T14:30:01;5.77;;;2.00;;
72037;SDS011;59900;50.788;12.904;2022-07-26T14:32:28;3.83;;;2.05;;
72037;SDS011;59900;50.788;12.904;2022-07-26T14:34:53;5.53;;;1.67;;
72037;SDS011;59900;50.788;12.904;2022-07-26T14:37:18;4.63;;;1.70;;
72037;SDS011;59900;50.788;12.904;2022-07-26T14:39:43;3.60;;;1.77;;
72037;SDS011;59900;50.788;12.904;2022-07-26T14:42:09;7.60;;;1.67;;
72037;SDS011;59900;50.788;12.904;2022-07-26T14:44:34;4.53;;;1.73;;
72037;SDS011;59900;50.788;12.904;2022-07-26T14:46:59;4.13;;;1.80;;